sensor_id;sensor_type;location;lat;lon;timestamp;temperature;humidity
9808;DHT22;4943;52.550;13.462;2022-07-23T00:01:00;22.50;92.80
9808;DHT22;4943;52.550;13.462;2022-07-23T00:03:28;22.50;92.80
9808;DHT22;4943;52.550;13.462;2022-07-23T00:05:56;22.50;92.80
9808;DHT22;4943;52.550;13.462;2022-07-23T00:08:24;22.50;92.80
9808;DHT22;4943;52.550;13.462;2022-07-23T00:10:53;22.40;92.80
9808;DHT22;4943;52.550;13.462;2022-07-23T00:13:22;22.40;92.90
9808;DHT22;4943;52.550;13.462;2022-07-23T00:15:50;22.40;92.90
9808;DHT22;4943;52.550;13.462;2022-07-23T00:18:18;22.40;92.80
9808;DHT22;4943;52.550;13.462;2022-07-23T00:20:46;22.40;92.90
9808;DHT22;4943;52.550;13.462;2022-07-23T00:23:14;22.40;92.90
9808;DHT22;4943;52.550;13.462;2022-07-23T00:25:43;22.40;92.90
9808;DHT22;4943;52.550;13.462;2022-07-23T00:28:13;22.30;92.90
9808;DHT22;4943;52.550;13.462;2022-07-23T00:30:41;22.30;93.00
9808;DHT22;4943;52.550;13.462;2022-07-23T00:33:09;22.30;93.00
9808;DHT22;4943;52.550;13.462;2022-07-23T00:35:39;22.30;93.00
9808;DHT22;4943;52.550;13.462;2022-07-23T00:38:09;22.30;92.90
9808;DHT22;4943;52.550;13.462;2022-07-23T00:40:38;22.30;92.90
9808;DHT22;4943;52.550;13.462;2022-07-23T00:43:07;22.30;92.80
9808;DHT22;4943;52.550;13.462;2022-07-23T00:45:36;22.30;93.00
9808;DHT22;4943;52.550;13.462;2022-07-23T00:48:05;22.30;93.00
9808;DHT22;4943;52.550;13.462;2022-07-23T00:50:33;22.20;93.00
9808;DHT22;4943;52.550;13.462;2022-07-23T00:53:01;22.30;93.00
9808;DHT22;4943;52.550;13.462;2022-07-23T00:55:30;22.30;92.90
9808;DHT22;4943;52.550;13.462;2022-07-23T00:57:58;22.30;92.90
9808;DHT22;4943;52.550;13.462;2022-07-23T01:00:28;22.20;93.00
9808;DHT22;4943;52.550;13.462;2022-07-23T01:02:58;22.20;92.90
9808;DHT22;4943;52.550;13.462;2022-07-23T01:05:26;22.20;92.90
9808;DHT22;4943;52.550;13.462;2022-07-23T01:07:54;22.10;93.20
9808;DHT22;4943;52.550;13.462;2022-07-23T01:10:23;22.10;92.90
9808;DHT22;4943;52.550;13.462;2022-07-23T01:13:06;22.00;93.00
9808;DHT22;4943;52.550;13.462;2022-07-23T01:15:36;21.90;93.00
9808;DHT22;4943;52.550;13.462;2022-07-23T01:18:07;21.90;93.10
9808;DHT22;4943;52.550;13.462;2022-07-23T01:20:35;21.90;93.10
9808;DHT22;4943;52.550;13.462;2022-07-23T01:23:05;21.90;93.10
9808;DHT22;4943;52.550;13.462;2022-07-23T01:25:33;21.80;93.10
9808;DHT22;4943;52.550;13.462;2022-07-23T01:28:01;21.80;93.20
9808;DHT22;4943;52.550;13.462;2022-07-23T01:30:29;21.80;93.20
9808;DHT22;4943;52.550;13.462;2022-07-23T01:32:58;21.80;93.20
9808;DHT22;4943;52.550;13.462;2022-07-23T01:35:26;21.80;93.20
9808;DHT22;4943;52.550;13.462;2022-07-23T01:37:54;21.70;93.20
9808;DHT22;4943;52.550;13.462;2022-07-23T01:40:23;21.70;93.20
9808;DHT22;4943;52.550;13.462;2022-07-23T01:42:53;21.70;93.30
9808;DHT22;4943;52.550;13.462;2022-07-23T01:45:21;21.70;93.30
9808;DHT22;4943;52.550;13.462;2022-07-23T01:47:50;21.60;93.30
9808;DHT22;4943;52.550;13.462;2022-07-23T01:50:18;21.60;93.30
9808;DHT22;4943;52.550;13.462;2022-07-23T01:52:46;21.50;93.30
9808;DHT22;4943;52.550;13.462;2022-07-23T01:55:14;21.50;93.40
9808;DHT22;4943;52.550;13.462;2022-07-23T01:57:46;21.40;93.40
9808;DHT22;4943;52.550;13.462;2022-07-23T02:00:15;21.40;93.50
9808;DHT22;4943;52.550;13.462;2022-07-23T02:02:43;21.40;93.50
9808;DHT22;4943;52.550;13.462;2022-07-23T02:05:11;21.30;93.60
9808;DHT22;4943;52.550;13.462;2022-07-23T02:07:39;21.30;93.70
9808;DHT22;4943;52.550;13.462;2022-07-23T02:10:09;21.30;93.80
9808;DHT22;4943;52.550;13.462;2022-07-23T02:12:37;21.30;93.80
9808;DHT22;4943;52.550;13.462;2022-07-23T02:15:07;21.30;93.80
9808;DHT22;4943;52.550;13.462;2022-07-23T02:17:36;21.30;93.90
9808;DHT22;4943;52.550;13.462;2022-07-23T02:20:05;21.20;93.90
9808;DHT22;4943;52.550;13.462;2022-07-23T02:22:34;21.20;94.00
9808;DHT22;4943;52.550;13.462;2022-07-23T02:25:03;21.20;94.00
9808;DHT22;4943;52.550;13.462;2022-07-23T02:27:31;21.20;94.00
9808;DHT22;4943;52.550;13.462;2022-07-23T02:29:59;21.20;94.00
9808;DHT22;4943;52.550;13.462;2022-07-23T02:32:29;21.20;94.00
9808;DHT22;4943;52.550;13.462;2022-07-23T02:34:57;21.20;94.00
9808;DHT22;4943;52.550;13.462;2022-07-23T02:37:25;21.20;94.10
9808;DHT22;4943;52.550;13.462;2022-07-23T02:39:54;21.10;94.40
9808;DHT22;4943;52.550;13.462;2022-07-23T02:42:22;21.10;94.10
9808;DHT22;4943;52.550;13.462;2022-07-23T02:44:50;21.00;94.10
9808;DHT22;4943;52.550;13.462;2022-07-23T02:47:19;21.00;94.20
9808;DHT22;4943;52.550;13.462;2022-07-23T02:49:48;20.90;94.20
9808;DHT22;4943;52.550;13.462;2022-07-23T02:52:16;20.90;94.30
9808;DHT22;4943;52.550;13.462;2022-07-23T02:54:44;20.80;94.40
9808;DHT22;4943;52.550;13.462;2022-07-23T02:57:13;20.80;94.50
9808;DHT22;4943;52.550;13.462;2022-07-23T02:59:41;20.80;94.40
9808;DHT22;4943;52.550;13.462;2022-07-23T03:02:09;20.80;94.50
9808;DHT22;4943;52.550;13.462;2022-07-23T03:04:37;20.70;94.50
9808;DHT22;4943;52.550;13.462;2022-07-23T03:07:06;20.70;94.60
9808;DHT22;4943;52.550;13.462;2022-07-23T03:09:35;20.70;94.70
9808;DHT22;4943;52.550;13.462;2022-07-23T03:12:03;20.60;95.00
9808;DHT22;4943;52.550;13.462;2022-07-23T03:14:39;20.60;94.90
9808;DHT22;4943;52.550;13.462;2022-07-23T03:17:08;20.50;94.90
9808;DHT22;4943;52.550;13.462;2022-07-23T03:19:36;20.50;95.10
9808;DHT22;4943;52.550;13.462;2022-07-23T03:22:06;20.50;95.40
9808;DHT22;4943;52.550;13.462;2022-07-23T03:24:35;20.50;95.00
9808;DHT22;4943;52.550;13.462;2022-07-23T03:27:22;20.50;95.00
9808;DHT22;4943;52.550;13.462;2022-07-23T03:29:51;20.40;95.00
9808;DHT22;4943;52.550;13.462;2022-07-23T03:32:19;20.40;95.10
9808;DHT22;4943;52.550;13.462;2022-07-23T03:34:48;20.40;95.10
9808;DHT22;4943;52.550;13.462;2022-07-23T03:37:18;20.30;95.10
9808;DHT22;4943;52.550;13.462;2022-07-23T03:39:47;20.30;95.20
9808;DHT22;4943;52.550;13.462;2022-07-23T03:42:15;20.20;95.20
9808;DHT22;4943;52.550;13.462;2022-07-23T03:44:43;20.20;95.20
9808;DHT22;4943;52.550;13.462;2022-07-23T03:47:12;20.20;95.20
9808;DHT22;4943;52.550;13.462;2022-07-23T03:49:40;20.20;95.20
9808;DHT22;4943;52.550;13.462;2022-07-23T03:52:08;20.10;95.30
9808;DHT22;4943;52.550;13.462;2022-07-23T03:54:37;20.10;95.60
9808;DHT22;4943;52.550;13.462;2022-07-23T03:57:05;20.10;95.20
9808;DHT22;4943;52.550;13.462;2022-07-23T03:59:33;20.10;95.30
9808;DHT22;4943;52.550;13.462;2022-07-23T04:02:02;20.10;95.30
9808;DHT22;4943;52.550;13.462;2022-07-23T04:04:30;20.10;95.20
9808;DHT22;4943;52.550;13.462;2022-07-23T04:06:58;20.10;95.30
9808;DHT22;4943;52.550;13.462;2022-07-23T04:09:28;20.10;95.20
9808;DHT22;4943;52.550;13.462;2022-07-23T04:11:57;20.10;95.20
9808;DHT22;4943;52.550;13.462;2022-07-23T04:14:25;20.10;95.10
9808;DHT22;4943;52.550;13.462;2022-07-23T04:16:53;20.20;95.10
9808;DHT22;4943;52.550;13.462;2022-07-23T04:19:22;20.20;95.00
9808;DHT22;4943;52.550;13.462;2022-07-23T04:21:50;20.20;94.90
9808;DHT22;4943;52.550;13.462;2022-07-23T04:24:18;20.20;94.80
9808;DHT22;4943;52.550;13.462;2022-07-23T04:26:46;20.20;94.80
9808;DHT22;4943;52.550;13.462;2022-07-23T04:29:16;20.20;94.70
9808;DHT22;4943;52.550;13.462;2022-07-23T04:31:44;20.20;94.70
9808;DHT22;4943;52.550;13.462;2022-07-23T04:34:12;20.30;94.70
9808;DHT22;4943;52.550;13.462;2022-07-23T04:36:40;20.20;94.40
9808;DHT22;4943;52.550;13.462;2022-07-23T04:39:08;20.20;94.40
9808;DHT22;4943;52.550;13.462;2022-07-23T04:41:36;20.20;94.40
9808;DHT22;4943;52.550;13.462;2022-07-23T04:44:04;20.20;94.10
9808;DHT22;4943;52.550;13.462;2022-07-23T04:46:34;20.20;94.40
9808;DHT22;4943;52.550;13.462;2022-07-23T04:49:03;20.20;94.30
9808;DHT22;4943;52.550;13.462;2022-07-23T04:51:32;20.10;94.50
9808;DHT22;4943;52.550;13.462;2022-07-23T04:54:00;20.10;94.60
9808;DHT22;4943;52.550;13.462;2022-07-23T04:56:28;20.00;94.80
9808;DHT22;4943;52.550;13.462;2022-07-23T04:58:56;20.00;94.90
9808;DHT22;4943;52.550;13.462;2022-07-23T05:01:25;20.10;95.00
9808;DHT22;4943;52.550;13.462;2022-07-23T05:03:55;20.10;95.10
9808;DHT22;4943;52.550;13.462;2022-07-23T05:06:23;20.10;95.30
9808;DHT22;4943;52.550;13.462;2022-07-23T05:08:51;20.10;95.50
9808;DHT22;4943;52.550;13.462;2022-07-23T05:11:19;20.10;95.60
9808;DHT22;4943;52.550;13.462;2022-07-23T05:13:53;20.10;95.80
9808;DHT22;4943;52.550;13.462;2022-07-23T05:16:21;20.00;96.00
9808;DHT22;4943;52.550;13.462;2022-07-23T05:18:49;20.00;96.20
9808;DHT22;4943;52.550;13.462;2022-07-23T05:21:19;20.00;96.40
9808;DHT22;4943;52.550;13.462;2022-07-23T05:23:47;20.10;96.50
9808;DHT22;4943;52.550;13.462;2022-07-23T05:26:15;20.00;96.30
9808;DHT22;4943;52.550;13.462;2022-07-23T05:28:43;20.00;96.40
9808;DHT22;4943;52.550;13.462;2022-07-23T05:31:16;19.90;96.50
9808;DHT22;4943;52.550;13.462;2022-07-23T05:33:44;19.80;96.50
9808;DHT22;4943;52.550;13.462;2022-07-23T05:36:12;19.80;96.70
9808;DHT22;4943;52.550;13.462;2022-07-23T05:38:42;19.70;96.60
9808;DHT22;4943;52.550;13.462;2022-07-23T05:41:10;19.60;96.70
9808;DHT22;4943;52.550;13.462;2022-07-23T05:43:38;19.60;96.80
9808;DHT22;4943;52.550;13.462;2022-07-23T05:46:06;19.60;97.00
9808;DHT22;4943;52.550;13.462;2022-07-23T05:48:34;19.60;97.20
9808;DHT22;4943;52.550;13.462;2022-07-23T05:51:03;19.70;97.40
9808;DHT22;4943;52.550;13.462;2022-07-23T05:53:34;19.80;97.40
9808;DHT22;4943;52.550;13.462;2022-07-23T05:56:03;19.90;97.50
9808;DHT22;4943;52.550;13.462;2022-07-23T05:58:31;20.00;97.50
9808;DHT22;4943;52.550;13.462;2022-07-23T06:01:00;20.10;97.40
9808;DHT22;4943;52.550;13.462;2022-07-23T06:03:28;20.10;97.30
9808;DHT22;4943;52.550;13.462;2022-07-23T06:05:56;20.10;97.40
9808;DHT22;4943;52.550;13.462;2022-07-23T06:08:24;20.10;97.30
9808;DHT22;4943;52.550;13.462;2022-07-23T06:10:53;20.10;97.30
9808;DHT22;4943;52.550;13.462;2022-07-23T06:13:23;20.20;97.40
9808;DHT22;4943;52.550;13.462;2022-07-23T06:15:51;20.20;97.40
9808;DHT22;4943;52.550;13.462;2022-07-23T06:18:19;20.20;97.40
9808;DHT22;4943;52.550;13.462;2022-07-23T06:20:47;20.20;97.50
9808;DHT22;4943;52.550;13.462;2022-07-23T06:23:17;20.20;97.60
9808;DHT22;4943;52.550;13.462;2022-07-23T06:25:45;20.20;97.80
9808;DHT22;4943;52.550;13.462;2022-07-23T06:28:13;20.20;97.90
9808;DHT22;4943;52.550;13.462;2022-07-23T06:30:43;20.20;97.90
9808;DHT22;4943;52.550;13.462;2022-07-23T06:33:11;20.10;98.00
9808;DHT22;4943;52.550;13.462;2022-07-23T06:35:40;20.10;98.20
9808;DHT22;4943;52.550;13.462;2022-07-23T06:38:08;20.10;98.20
9808;DHT22;4943;52.550;13.462;2022-07-23T06:40:36;20.20;98.30
9808;DHT22;4943;52.550;13.462;2022-07-23T06:43:04;20.20;98.40
9808;DHT22;4943;52.550;13.462;2022-07-23T06:45:33;20.20;98.50
9808;DHT22;4943;52.550;13.462;2022-07-23T06:48:02;20.30;98.60
9808;DHT22;4943;52.550;13.462;2022-07-23T06:50:31;20.30;98.60
9808;DHT22;4943;52.550;13.462;2022-07-23T06:52:59;20.20;98.80
9808;DHT22;4943;52.550;13.462;2022-07-23T06:55:27;20.20;98.70
9808;DHT22;4943;52.550;13.462;2022-07-23T06:57:55;20.20;98.90
9808;DHT22;4943;52.550;13.462;2022-07-23T07:00:23;20.20;98.70
9808;DHT22;4943;52.550;13.462;2022-07-23T07:02:53;20.20;98.60
9808;DHT22;4943;52.550;13.462;2022-07-23T07:05:24;20.20;98.80
9808;DHT22;4943;52.550;13.462;2022-07-23T07:07:54;20.30;99.00
9808;DHT22;4943;52.550;13.462;2022-07-23T07:10:22;20.40;99.10
9808;DHT22;4943;52.550;13.462;2022-07-23T07:12:51;20.40;99.00
9808;DHT22;4943;52.550;13.462;2022-07-23T07:15:19;20.50;99.00
9808;DHT22;4943;52.550;13.462;2022-07-23T07:17:47;20.50;99.00
9808;DHT22;4943;52.550;13.462;2022-07-23T07:20:15;20.50;99.00
9808;DHT22;4943;52.550;13.462;2022-07-23T07:22:44;20.60;99.30
9808;DHT22;4943;52.550;13.462;2022-07-23T07:25:13;20.70;99.60
9808;DHT22;4943;52.550;13.462;2022-07-23T07:27:41;20.80;99.80
9808;DHT22;4943;52.550;13.462;2022-07-23T07:30:11;20.90;99.80
9808;DHT22;4943;52.550;13.462;2022-07-23T07:32:39;21.00;99.80
9808;DHT22;4943;52.550;13.462;2022-07-23T07:35:24;21.10;99.70
9808;DHT22;4943;52.550;13.462;2022-07-23T07:37:54;21.20;99.70
9808;DHT22;4943;52.550;13.462;2022-07-23T07:40:22;21.20;99.70
9808;DHT22;4943;52.550;13.462;2022-07-23T07:42:57;21.20;99.60
9808;DHT22;4943;52.550;13.462;2022-07-23T07:45:26;21.30;99.60
9808;DHT22;4943;52.550;13.462;2022-07-23T07:47:54;21.30;99.50
9808;DHT22;4943;52.550;13.462;2022-07-23T07:50:22;21.40;99.40
9808;DHT22;4943;52.550;13.462;2022-07-23T07:52:51;21.40;99.30
9808;DHT22;4943;52.550;13.462;2022-07-23T07:55:21;21.30;98.70
9808;DHT22;4943;52.550;13.462;2022-07-23T07:57:49;21.30;98.90
9808;DHT22;4943;52.550;13.462;2022-07-23T08:00:18;21.30;99.10
9808;DHT22;4943;52.550;13.462;2022-07-23T08:02:48;21.20;98.70
9808;DHT22;4943;52.550;13.462;2022-07-23T08:05:20;21.20;98.80
9808;DHT22;4943;52.550;13.462;2022-07-23T08:07:54;21.30;99.10
9808;DHT22;4943;52.550;13.462;2022-07-23T08:10:25;21.40;99.00
9808;DHT22;4943;52.550;13.462;2022-07-23T08:12:54;21.50;98.70
9808;DHT22;4943;52.550;13.462;2022-07-23T08:15:25;21.50;98.40
9808;DHT22;4943;52.550;13.462;2022-07-23T08:17:54;21.40;98.30
9808;DHT22;4943;52.550;13.462;2022-07-23T08:20:23;21.40;98.40
9808;DHT22;4943;52.550;13.462;2022-07-23T08:22:53;21.40;98.40
9808;DHT22;4943;52.550;13.462;2022-07-23T08:25:25;21.40;98.30
9808;DHT22;4943;52.550;13.462;2022-07-23T08:27:53;21.50;98.60
9808;DHT22;4943;52.550;13.462;2022-07-23T08:30:22;21.50;98.20
9808;DHT22;4943;52.550;13.462;2022-07-23T08:32:52;21.40;97.40
9808;DHT22;4943;52.550;13.462;2022-07-23T08:35:25;21.40;97.50
9808;DHT22;4943;52.550;13.462;2022-07-23T08:37:54;21.40;97.50
9808;DHT22;4943;52.550;13.462;2022-07-23T08:40:26;21.40;97.30
9808;DHT22;4943;52.550;13.462;2022-07-23T08:42:54;21.40;97.50
9808;DHT22;4943;52.550;13.462;2022-07-23T08:45:24;21.30;97.30
9808;DHT22;4943;52.550;13.462;2022-07-23T08:47:53;21.30;97.30
9808;DHT22;4943;52.550;13.462;2022-07-23T08:50:23;21.40;97.30
9808;DHT22;4943;52.550;13.462;2022-07-23T08:52:53;21.40;97.10
9808;DHT22;4943;52.550;13.462;2022-07-23T08:55:24;21.40;97.00
9808;DHT22;4943;52.550;13.462;2022-07-23T08:57:53;21.50;96.80
9808;DHT22;4943;52.550;13.462;2022-07-23T09:00:22;21.60;96.70
9808;DHT22;4943;52.550;13.462;2022-07-23T09:02:50;21.70;96.70
9808;DHT22;4943;52.550;13.462;2022-07-23T09:05:19;21.90;96.60
9808;DHT22;4943;52.550;13.462;2022-07-23T09:08:09;21.90;96.10
9808;DHT22;4943;52.550;13.462;2022-07-23T09:10:48;21.90;96.20
9808;DHT22;4943;52.550;13.462;2022-07-23T09:13:25;22.00;96.30
9808;DHT22;4943;52.550;13.462;2022-07-23T09:15:55;21.90;95.50
9808;DHT22;4943;52.550;13.462;2022-07-23T09:18:31;21.80;95.60
9808;DHT22;4943;52.550;13.462;2022-07-23T09:21:16;21.70;95.70
9808;DHT22;4943;52.550;13.462;2022-07-23T09:23:47;21.70;96.00
9808;DHT22;4943;52.550;13.462;2022-07-23T09:26:25;21.80;96.30
9808;DHT22;4943;52.550;13.462;2022-07-23T09:29:00;22.00;96.30
9808;DHT22;4943;52.550;13.462;2022-07-23T09:31:33;22.00;96.00
9808;DHT22;4943;52.550;13.462;2022-07-23T09:34:09;22.10;96.00
9808;DHT22;4943;52.550;13.462;2022-07-23T09:36:38;22.30;96.00
9808;DHT22;4943;52.550;13.462;2022-07-23T09:39:07;22.30;95.70
9808;DHT22;4943;52.550;13.462;2022-07-23T09:41:39;22.40;95.90
9808;DHT22;4943;52.550;13.462;2022-07-23T09:44:13;22.50;95.90
9808;DHT22;4943;52.550;13.462;2022-07-23T09:46:43;22.60;95.70
9808;DHT22;4943;52.550;13.462;2022-07-23T09:49:16;22.60;95.60
9808;DHT22;4943;52.550;13.462;2022-07-23T09:51:46;22.70;95.60
9808;DHT22;4943;52.550;13.462;2022-07-23T09:54:24;22.80;95.70
9808;DHT22;4943;52.550;13.462;2022-07-23T09:56:56;22.90;95.70
9808;DHT22;4943;52.550;13.462;2022-07-23T09:59:26;23.10;95.40
9808;DHT22;4943;52.550;13.462;2022-07-23T10:01:56;23.20;94.90
9808;DHT22;4943;52.550;13.462;2022-07-23T10:04:27;23.20;94.60
9808;DHT22;4943;52.550;13.462;2022-07-23T10:06:58;23.20;94.40
9808;DHT22;4943;52.550;13.462;2022-07-23T10:09:30;23.20;94.10
9808;DHT22;4943;52.550;13.462;2022-07-23T10:12:01;23.10;93.40
9808;DHT22;4943;52.550;13.462;2022-07-23T10:14:35;23.10;93.60
9808;DHT22;4943;52.550;13.462;2022-07-23T10:17:03;23.20;94.00
9808;DHT22;4943;52.550;13.462;2022-07-23T10:19:32;23.30;93.90
9808;DHT22;4943;52.550;13.462;2022-07-23T10:22:02;23.40;93.60
9808;DHT22;4943;52.550;13.462;2022-07-23T10:24:41;23.50;93.50
9808;DHT22;4943;52.550;13.462;2022-07-23T10:27:31;23.50;93.20
9808;DHT22;4943;52.550;13.462;2022-07-23T10:30:03;23.50;93.20
9808;DHT22;4943;52.550;13.462;2022-07-23T10:32:40;23.50;93.10
9808;DHT22;4943;52.550;13.462;2022-07-23T10:35:21;23.50;93.10
9808;DHT22;4943;52.550;13.462;2022-07-23T10:38:00;23.50;92.60
9808;DHT22;4943;52.550;13.462;2022-07-23T10:40:31;23.40;92.70
9808;DHT22;4943;52.550;13.462;2022-07-23T10:43:00;23.30;92.50
9808;DHT22;4943;52.550;13.462;2022-07-23T10:45:31;23.20;92.80
9808;DHT22;4943;52.550;13.462;2022-07-23T10:48:13;23.30;93.10
9808;DHT22;4943;52.550;13.462;2022-07-23T10:50:44;23.40;93.20
9808;DHT22;4943;52.550;13.462;2022-07-23T10:53:54;23.40;92.70
9808;DHT22;4943;52.550;13.462;2022-07-23T10:57:04;23.50;92.80
9808;DHT22;4943;52.550;13.462;2022-07-23T11:00:13;23.60;92.90
9808;DHT22;4943;52.550;13.462;2022-07-23T11:02:44;23.70;92.60
9808;DHT22;4943;52.550;13.462;2022-07-23T11:05:15;23.80;92.50
9808;DHT22;4943;52.550;13.462;2022-07-23T11:08:10;23.80;92.50
9808;DHT22;4943;52.550;13.462;2022-07-23T11:10:40;24.00;92.50
9808;DHT22;4943;52.550;13.462;2022-07-23T11:13:28;24.00;92.20
9808;DHT22;4943;52.550;13.462;2022-07-23T11:16:21;24.10;92.20
9808;DHT22;4943;52.550;13.462;2022-07-23T11:18:56;24.10;91.40
9808;DHT22;4943;52.550;13.462;2022-07-23T11:21:50;24.00;91.30
9808;DHT22;4943;52.550;13.462;2022-07-23T11:24:21;23.90;91.30
9808;DHT22;4943;52.550;13.462;2022-07-23T11:27:02;23.80;91.70
9808;DHT22;4943;52.550;13.462;2022-07-23T11:29:45;23.90;91.70
9808;DHT22;4943;52.550;13.462;2022-07-23T11:32:36;24.00;91.60
9808;DHT22;4943;52.550;13.462;2022-07-23T11:35:19;24.10;91.50
9808;DHT22;4943;52.550;13.462;2022-07-23T11:37:49;24.20;91.50
9808;DHT22;4943;52.550;13.462;2022-07-23T11:40:20;24.30;91.70
9808;DHT22;4943;52.550;13.462;2022-07-23T11:42:54;24.40;91.40
9808;DHT22;4943;52.550;13.462;2022-07-23T11:45:23;24.50;91.20
9808;DHT22;4943;52.550;13.462;2022-07-23T11:47:52;24.60;90.90
9808;DHT22;4943;52.550;13.462;2022-07-23T11:50:23;24.60;91.00
9808;DHT22;4943;52.550;13.462;2022-07-23T11:52:52;24.70;91.00
9808;DHT22;4943;52.550;13.462;2022-07-23T11:55:20;24.80;91.00
9808;DHT22;4943;52.550;13.462;2022-07-23T11:57:51;24.90;90.90
9808;DHT22;4943;52.550;13.462;2022-07-23T12:00:22;25.00;90.90
9808;DHT22;4943;52.550;13.462;2022-07-23T12:02:54;25.20;90.90
9808;DHT22;4943;52.550;13.462;2022-07-23T12:05:25;25.40;90.50
9808;DHT22;4943;52.550;13.462;2022-07-23T12:07:54;25.60;90.50
9808;DHT22;4943;52.550;13.462;2022-07-23T12:10:24;25.80;90.30
9808;DHT22;4943;52.550;13.462;2022-07-23T12:12:54;25.80;89.30
9808;DHT22;4943;52.550;13.462;2022-07-23T12:15:25;25.90;89.70
9808;DHT22;4943;52.550;13.462;2022-07-23T12:17:54;25.90;89.30
9808;DHT22;4943;52.550;13.462;2022-07-23T12:20:24;26.00;89.20
9808;DHT22;4943;52.550;13.462;2022-07-23T12:22:56;26.10;88.50
9808;DHT22;4943;52.550;13.462;2022-07-23T12:25:27;26.20;88.50
9808;DHT22;4943;52.550;13.462;2022-07-23T12:28:00;26.30;88.10
9808;DHT22;4943;52.550;13.462;2022-07-23T12:30:32;26.40;87.60
9808;DHT22;4943;52.550;13.462;2022-07-23T12:33:03;26.40;87.80
9808;DHT22;4943;52.550;13.462;2022-07-23T12:35:35;26.50;88.10
9808;DHT22;4943;52.550;13.462;2022-07-23T12:38:05;26.60;87.80
9808;DHT22;4943;52.550;13.462;2022-07-23T12:40:36;26.60;86.10
9808;DHT22;4943;52.550;13.462;2022-07-23T12:43:06;26.40;85.80
9808;DHT22;4943;52.550;13.462;2022-07-23T12:45:46;26.30;86.10
9808;DHT22;4943;52.550;13.462;2022-07-23T12:48:19;26.30;86.60
9808;DHT22;4943;52.550;13.462;2022-07-23T12:50:51;26.30;87.20
9808;DHT22;4943;52.550;13.462;2022-07-23T12:53:22;26.40;86.50
9808;DHT22;4943;52.550;13.462;2022-07-23T12:55:57;26.50;86.40
9808;DHT22;4943;52.550;13.462;2022-07-23T12:58:47;26.50;86.70
9808;DHT22;4943;52.550;13.462;2022-07-23T13:01:29;26.60;85.20
9808;DHT22;4943;52.550;13.462;2022-07-23T13:04:20;26.70;85.70
9808;DHT22;4943;52.550;13.462;2022-07-23T13:06:51;26.80;85.00
9808;DHT22;4943;52.550;13.462;2022-07-23T13:09:20;26.70;84.20
9808;DHT22;4943;52.550;13.462;2022-07-23T13:11:49;26.60;84.20
9808;DHT22;4943;52.550;13.462;2022-07-23T13:14:19;26.40;84.10
9808;DHT22;4943;52.550;13.462;2022-07-23T13:16:48;26.30;84.70
9808;DHT22;4943;52.550;13.462;2022-07-23T13:19:19;26.20;84.60
9808;DHT22;4943;52.550;13.462;2022-07-23T13:21:51;26.10;84.80
9808;DHT22;4943;52.550;13.462;2022-07-23T13:24:20;26.00;84.90
9808;DHT22;4943;52.550;13.462;2022-07-23T13:26:48;25.90;84.60
9808;DHT22;4943;52.550;13.462;2022-07-23T13:29:18;25.80;85.10
9808;DHT22;4943;52.550;13.462;2022-07-23T13:31:47;25.80;85.80
9808;DHT22;4943;52.550;13.462;2022-07-23T13:34:17;25.80;85.30
9808;DHT22;4943;52.550;13.462;2022-07-23T13:36:47;25.80;85.40
9808;DHT22;4943;52.550;13.462;2022-07-23T13:39:15;25.90;85.50
9808;DHT22;4943;52.550;13.462;2022-07-23T13:41:43;25.90;84.90
9808;DHT22;4943;52.550;13.462;2022-07-23T13:44:16;25.90;85.10
9808;DHT22;4943;52.550;13.462;2022-07-23T13:46:46;26.00;85.10
9808;DHT22;4943;52.550;13.462;2022-07-23T13:49:14;26.10;85.30
9808;DHT22;4943;52.550;13.462;2022-07-23T13:51:42;26.20;84.70
9808;DHT22;4943;52.550;13.462;2022-07-23T13:54:12;26.20;83.90
9808;DHT22;4943;52.550;13.462;2022-07-23T13:56:40;26.20;83.70
9808;DHT22;4943;52.550;13.462;2022-07-23T13:59:08;26.20;84.20
9808;DHT22;4943;52.550;13.462;2022-07-23T14:01:37;26.20;83.90
9808;DHT22;4943;52.550;13.462;2022-07-23T14:04:26;26.20;83.80
9808;DHT22;4943;52.550;13.462;2022-07-23T14:06:54;26.20;84.60
9808;DHT22;4943;52.550;13.462;2022-07-23T14:09:24;26.20;84.40
9808;DHT22;4943;52.550;13.462;2022-07-23T14:11:52;26.30;83.90
9808;DHT22;4943;52.550;13.462;2022-07-23T14:14:20;26.40;83.60
9808;DHT22;4943;52.550;13.462;2022-07-23T14:16:48;26.50;83.50
9808;DHT22;4943;52.550;13.462;2022-07-23T14:19:17;26.60;83.20
9808;DHT22;4943;52.550;13.462;2022-07-23T14:21:45;26.70;82.40
9808;DHT22;4943;52.550;13.462;2022-07-23T14:24:16;26.70;82.50
9808;DHT22;4943;52.550;13.462;2022-07-23T14:26:46;26.80;82.30
9808;DHT22;4943;52.550;13.462;2022-07-23T14:29:14;26.80;82.40
9808;DHT22;4943;52.550;13.462;2022-07-23T14:31:42;26.90;82.10
9808;DHT22;4943;52.550;13.462;2022-07-23T14:34:13;26.80;82.00
9808;DHT22;4943;52.550;13.462;2022-07-23T14:36:41;26.80;82.10
9808;DHT22;4943;52.550;13.462;2022-07-23T14:39:09;26.90;81.40
9808;DHT22;4943;52.550;13.462;2022-07-23T14:41:39;26.90;80.90
9808;DHT22;4943;52.550;13.462;2022-07-23T14:44:08;26.80;81.10
9808;DHT22;4943;52.550;13.462;2022-07-23T14:46:36;26.80;81.50
9808;DHT22;4943;52.550;13.462;2022-07-23T14:49:05;27.00;81.80
9808;DHT22;4943;52.550;13.462;2022-07-23T14:51:34;27.20;81.80
9808;DHT22;4943;52.550;13.462;2022-07-23T14:54:03;27.40;80.60
9808;DHT22;4943;52.550;13.462;2022-07-23T14:56:32;27.50;80.40
9808;DHT22;4943;52.550;13.462;2022-07-23T14:59:01;27.50;80.30
9808;DHT22;4943;52.550;13.462;2022-07-23T15:01:32;27.60;79.70
9808;DHT22;4943;52.550;13.462;2022-07-23T15:04:01;27.70;80.30
9808;DHT22;4943;52.550;13.462;2022-07-23T15:06:49;27.70;79.40
9808;DHT22;4943;52.550;13.462;2022-07-23T15:09:17;27.80;79.30
9808;DHT22;4943;52.550;13.462;2022-07-23T15:11:46;27.80;77.30
9808;DHT22;4943;52.550;13.462;2022-07-23T15:14:15;27.70;76.50
9808;DHT22;4943;52.550;13.462;2022-07-23T15:16:55;27.60;77.20
9808;DHT22;4943;52.550;13.462;2022-07-23T15:19:23;27.60;78.10
9808;DHT22;4943;52.550;13.462;2022-07-23T15:21:52;27.60;77.50
9808;DHT22;4943;52.550;13.462;2022-07-23T15:24:20;27.60;76.70
9808;DHT22;4943;52.550;13.462;2022-07-23T15:26:48;27.60;76.90
9808;DHT22;4943;52.550;13.462;2022-07-23T15:29:17;27.70;77.40
9808;DHT22;4943;52.550;13.462;2022-07-23T15:31:47;27.90;77.90
9808;DHT22;4943;52.550;13.462;2022-07-23T15:34:25;28.20;77.70
9808;DHT22;4943;52.550;13.462;2022-07-23T15:36:53;28.50;77.40
9808;DHT22;4943;52.550;13.462;2022-07-23T15:39:22;28.70;75.60
9808;DHT22;4943;52.550;13.462;2022-07-23T15:41:51;28.90;75.30
9808;DHT22;4943;52.550;13.462;2022-07-23T15:44:19;28.80;73.90
9808;DHT22;4943;52.550;13.462;2022-07-23T15:46:56;28.60;73.20
9808;DHT22;4943;52.550;13.462;2022-07-23T15:49:27;28.50;74.20
9808;DHT22;4943;52.550;13.462;2022-07-23T15:51:57;28.50;75.10
9808;DHT22;4943;52.550;13.462;2022-07-23T15:54:26;28.70;74.50
9808;DHT22;4943;52.550;13.462;2022-07-23T15:56:56;28.50;72.10
9808;DHT22;4943;52.550;13.462;2022-07-23T15:59:32;28.40;72.60
9808;DHT22;4943;52.550;13.462;2022-07-23T16:02:00;28.20;72.60
9808;DHT22;4943;52.550;13.462;2022-07-23T16:04:30;28.10;73.20
9808;DHT22;4943;52.550;13.462;2022-07-23T16:06:59;28.30;74.20